sensor_id;sensor_type;location;lat;lon;timestamp;pressure;altitude;pressure_sealevel;temperature;humidity
62600;BME280;48671;48.922;2.346;2023-02-11T00:00:03;103599.03;;;8.37;64.48
62600;BME280;48671;48.922;2.346;2023-02-11T00:02:30;103595.59;;;8.38;64.81
62600;BME280;48671;48.922;2.346;2023-02-11T00:04:55;103591.28;;;8.39;64.56
62600;BME280;48671;48.922;2.346;2023-02-11T00:07:21;103585.09;;;8.32;64.33
62600;BME280;48671;48.922;2.346;2023-02-11T00:09:46;103582.44;;;8.29;64.77
62600;BME280;48671;48.922;2.346;2023-02-11T00:12:11;103578.00;;;8.22;64.48
62600;BME280;48671;48.922;2.346;2023-02-11T00:14:37;103581.41;;;8.18;64.95
62600;BME280;48671;48.922;2.346;2023-02-11T00:17:02;103570.97;;;8.15;64.83
62600;BME280;48671;48.922;2.346;2023-02-11T00:19:27;103570.94;;;8.13;65.12
62600;BME280;48671;48.922;2.346;2023-02-11T00:21:53;103574.41;;;8.14;64.84
62600;BME280;48671;48.922;2.346;2023-02-11T00:24:18;103576.94;;;8.11;64.66
62600;BME280;48671;48.922;2.346;2023-02-11T00:26:43;103578.66;;;8.10;64.91
62600;BME280;48671;48.922;2.346;2023-02-11T00:29:09;103581.25;;;8.09;65.23
62600;BME280;48671;48.922;2.346;2023-02-11T00:31:34;103582.97;;;8.08;65.17
62600;BME280;48671;48.922;2.346;2023-02-11T00:33:59;103582.91;;;8.07;65.48
62600;BME280;48671;48.922;2.346;2023-02-11T00:36:26;103587.28;;;8.08;65.31
62600;BME280;48671;48.922;2.346;2023-02-11T00:38:53;103565.47;;;7.96;65.19
62600;BME280;48671;48.922;2.346;2023-02-11T00:41:20;103554.97;;;7.89;65.41
62600;BME280;48671;48.922;2.346;2023-02-11T00:43:45;103569.66;;;7.88;65.31
62600;BME280;48671;48.922;2.346;2023-02-11T00:46:12;103567.81;;;7.84;65.16
62600;BME280;48671;48.922;2.346;2023-02-11T00:48:37;103577.38;;;7.85;65.21
62600;BME280;48671;48.922;2.346;2023-02-11T00:51:03;103565.16;;;7.81;65.25
62600;BME280;48671;48.922;2.346;2023-02-11T00:53:29;103572.00;;;7.76;65.48
62600;BME280;48671;48.922;2.346;2023-02-11T00:55:54;103564.91;;;7.67;65.29
62600;BME280;48671;48.922;2.346;2023-02-11T00:58:19;103574.41;;;7.67;65.68
62600;BME280;48671;48.922;2.346;2023-02-11T01:00:46;103574.47;;;7.70;65.60
62600;BME280;48671;48.922;2.346;2023-02-11T01:03:12;103556.16;;;7.61;65.78
62600;BME280;48671;48.922;2.346;2023-02-11T01:05:37;103549.19;;;7.57;65.66
62600;BME280;48671;48.922;2.346;2023-02-11T01:08:02;103546.69;;;7.63;65.87
62600;BME280;48671;48.922;2.346;2023-02-11T01:10:28;103555.41;;;7.66;65.67
62600;BME280;48671;48.922;2.346;2023-02-11T01:12:53;103537.03;;;7.54;65.99
62600;BME280;48671;48.922;2.346;2023-02-11T01:15:19;103543.94;;;7.55;65.97
62600;BME280;48671;48.922;2.346;2023-02-11T01:17:45;103536.16;;;7.54;65.82
62600;BME280;48671;48.922;2.346;2023-02-11T01:20:17;103558.81;;;7.64;65.83
62600;BME280;48671;48.922;2.346;2023-02-11T01:22:43;103565.72;;;7.63;66.46
62600;BME280;48671;48.922;2.346;2023-02-11T01:25:09;103567.38;;;7.61;66.28
62600;BME280;48671;48.922;2.346;2023-02-11T01:27:35;103556.81;;;7.49;66.15
62600;BME280;48671;48.922;2.346;2023-02-11T01:30:00;103557.63;;;7.48;66.44
62600;BME280;48671;48.922;2.346;2023-02-11T01:32:26;103553.31;;;7.48;66.27
62600;BME280;48671;48.922;2.346;2023-02-11T01:34:51;103556.00;;;7.53;66.38
62600;BME280;48671;48.922;2.346;2023-02-11T01:37:16;103562.88;;;7.51;66.58
62600;BME280;48671;48.922;2.346;2023-02-11T01:39:42;103569.78;;;7.50;66.77
62600;BME280;48671;48.922;2.346;2023-02-11T01:42:19;103553.13;;;7.38;66.87
62600;BME280;48671;48.922;2.346;2023-02-11T01:44:44;103551.25;;;7.32;67.00
62600;BME280;48671;48.922;2.346;2023-02-11T01:47:10;103565.28;;;7.42;66.91
62600;BME280;48671;48.922;2.346;2023-02-11T01:49:38;103564.44;;;7.43;66.92
62600;BME280;48671;48.922;2.346;2023-02-11T01:52:12;103552.31;;;7.42;66.39
62600;BME280;48671;48.922;2.346;2023-02-11T01:54:42;103572.28;;;7.46;66.27
62600;BME280;48671;48.922;2.346;2023-02-11T01:57:30;103566.13;;;7.39;65.90
62600;BME280;48671;48.922;2.346;2023-02-11T02:00:36;103566.94;;;7.38;66.69
62600;BME280;48671;48.922;2.346;2023-02-11T02:03:07;103557.22;;;7.28;66.29
62600;BME280;48671;48.922;2.346;2023-02-11T02:05:52;103561.59;;;7.31;66.58
62600;BME280;48671;48.922;2.346;2023-02-11T02:08:36;103559.03;;;7.31;66.33
62600;BME280;48671;48.922;2.346;2023-02-11T02:11:04;103547.78;;;7.30;66.39
62600;BME280;48671;48.922;2.346;2023-02-11T02:13:32;103558.16;;;7.32;66.00
62600;BME280;48671;48.922;2.346;2023-02-11T02:16:07;103551.25;;;7.32;66.22
62600;BME280;48671;48.922;2.346;2023-02-11T02:40:31;103535.44;;;7.18;66.29
62600;BME280;48671;48.922;2.346;2023-02-11T02:42:58;103544.09;;;7.19;66.30
62600;BME280;48671;48.922;2.346;2023-02-11T02:45:25;103528.53;;;7.17;66.06
62600;BME280;48671;48.922;2.346;2023-02-11T02:47:50;103526.91;;;7.22;66.29
62600;BME280;48671;48.922;2.346;2023-02-11T02:50:20;103518.13;;;7.16;66.03
62600;BME280;48671;48.922;2.346;2023-02-11T02:55:27;103526.81;;;7.16;66.46
62600;BME280;48671;48.922;2.346;2023-02-11T03:00:51;103521.50;;;7.12;65.92
62600;BME280;48671;48.922;2.346;2023-02-11T03:03:34;103518.97;;;7.13;66.02
62600;BME280;48671;48.922;2.346;2023-02-11T03:06:10;103515.47;;;7.13;66.06
62600;BME280;48671;48.922;2.346;2023-02-11T03:08:52;103513.69;;;7.09;66.28
62600;BME280;48671;48.922;2.346;2023-02-11T03:11:22;103519.72;;;7.08;66.14
62600;BME280;48671;48.922;2.346;2023-02-11T03:13:49;103519.63;;;7.04;66.37
62600;BME280;48671;48.922;2.346;2023-02-11T03:16:19;103512.59;;;6.97;66.15
62600;BME280;48671;48.922;2.346;2023-02-11T03:18:52;103526.28;;;6.92;66.69
62600;BME280;48671;48.922;2.346;2023-02-11T03:21:21;103515.84;;;6.87;66.67
62600;BME280;48671;48.922;2.346;2023-02-11T03:23:56;103514.97;;;6.88;66.41
62600;BME280;48671;48.922;2.346;2023-02-11T03:26:33;103514.81;;;6.80;66.19
62600;BME280;48671;48.922;2.346;2023-02-11T03:29:30;103514.69;;;6.76;66.43
62600;BME280;48671;48.922;2.346;2023-02-11T03:32:16;103521.53;;;6.72;66.76
62600;BME280;48671;48.922;2.346;2023-02-11T03:37:26;103521.28;;;6.62;66.69
62600;BME280;48671;48.922;2.346;2023-02-11T03:39:58;103514.41;;;6.62;66.43
62600;BME280;48671;48.922;2.346;2023-02-11T03:42:27;103508.38;;;6.63;66.38
62600;BME280;48671;48.922;2.346;2023-02-11T03:45:03;103508.38;;;6.63;66.53
62600;BME280;48671;48.922;2.346;2023-02-11T03:47:31;103515.28;;;6.63;66.63
62600;BME280;48671;48.922;2.346;2023-02-11T03:50:02;103516.06;;;6.59;65.99
62600;BME280;48671;48.922;2.346;2023-02-11T03:52:29;103506.34;;;6.50;66.63
62600;BME280;48671;48.922;2.346;2023-02-11T03:54:57;103512.44;;;6.52;66.51
62600;BME280;48671;48.922;2.346;2023-02-11T03:57:24;103508.06;;;6.48;66.74
62600;BME280;48671;48.922;2.346;2023-02-11T03:59:55;103515.88;;;6.51;66.71
62600;BME280;48671;48.922;2.346;2023-02-11T04:02:30;103516.78;;;6.53;66.37
62600;BME280;48671;48.922;2.346;2023-02-11T04:04:56;103515.06;;;6.53;66.70
62600;BME280;48671;48.922;2.346;2023-02-11T04:07:22;103518.53;;;6.54;66.54
62600;BME280;48671;48.922;2.346;2023-02-11T04:09:47;103511.59;;;6.53;66.14
62600;BME280;48671;48.922;2.346;2023-02-11T04:12:13;103508.00;;;6.46;65.95
62600;BME280;48671;48.922;2.346;2023-02-11T04:14:38;103512.13;;;6.38;65.91
62600;BME280;48671;48.922;2.346;2023-02-11T04:17:03;103518.97;;;6.36;66.44
62600;BME280;48671;48.922;2.346;2023-02-11T04:19:29;103520.53;;;6.29;66.41
62600;BME280;48671;48.922;2.346;2023-02-11T04:21:54;103519.41;;;6.18;66.43
62600;BME280;48671;48.922;2.346;2023-02-11T04:24:19;103514.25;;;6.18;66.64
62600;BME280;48671;48.922;2.346;2023-02-11T04:26:45;103522.09;;;6.21;66.81
62600;BME280;48671;48.922;2.346;2023-02-11T04:29:10;103513.25;;;6.13;66.54
62600;BME280;48671;48.922;2.346;2023-02-11T04:31:35;103531.34;;;6.13;66.50
62600;BME280;48671;48.922;2.346;2023-02-11T04:34:01;103533.91;;;6.12;66.84
62600;BME280;48671;48.922;2.346;2023-02-11T04:36:26;103540.88;;;6.16;66.39
62600;BME280;48671;48.922;2.346;2023-02-11T04:38:51;103513.16;;;6.08;66.40
62600;BME280;48671;48.922;2.346;2023-02-11T04:41:16;103534.94;;;6.18;66.29
62600;BME280;48671;48.922;2.346;2023-02-11T04:43:42;103522.75;;;6.14;66.40
62600;BME280;48671;48.922;2.346;2023-02-11T04:46:07;103530.72;;;6.22;66.39
62600;BME280;48671;48.922;2.346;2023-02-11T04:48:32;103532.44;;;6.23;66.39
62600;BME280;48671;48.922;2.346;2023-02-11T04:50:59;103527.28;;;6.23;66.27
62600;BME280;48671;48.922;2.346;2023-02-11T04:53:25;103525.56;;;6.23;66.28
62600;BME280;48671;48.922;2.346;2023-02-11T04:55:50;103512.47;;;6.17;66.03
62600;BME280;48671;48.922;2.346;2023-02-11T04:58:17;103517.72;;;6.20;65.86
62600;BME280;48671;48.922;2.346;2023-02-11T05:00:43;103516.78;;;6.17;66.81
62600;BME280;48671;48.922;2.346;2023-02-11T05:03:08;103519.41;;;6.18;66.12
62600;BME280;48671;48.922;2.346;2023-02-11T05:05:37;103515.94;;;6.18;66.00
62600;BME280;48671;48.922;2.346;2023-02-11T05:08:03;103513.41;;;6.19;66.78
62600;BME280;48671;48.922;2.346;2023-02-11T05:10:29;103498.59;;;6.12;66.36
62600;BME280;48671;48.922;2.346;2023-02-11T05:12:54;103497.84;;;6.18;66.25
62600;BME280;48671;48.922;2.346;2023-02-11T05:15:19;103500.47;;;6.19;66.52
62600;BME280;48671;48.922;2.346;2023-02-11T05:17:45;103508.31;;;6.22;65.79
62600;BME280;48671;48.922;2.346;2023-02-11T05:20:10;103508.22;;;6.19;66.24
62600;BME280;48671;48.922;2.346;2023-02-11T05:22:36;103495.19;;;6.15;65.66
62600;BME280;48671;48.922;2.346;2023-02-11T05:25:01;103499.44;;;6.13;66.03
62600;BME280;48671;48.922;2.346;2023-02-11T05:27:26;103499.28;;;6.05;66.45
62600;BME280;48671;48.922;2.346;2023-02-11T05:29:51;103503.63;;;6.07;66.10
62600;BME280;48671;48.922;2.346;2023-02-11T05:32:17;103506.28;;;6.10;66.30
62600;BME280;48671;48.922;2.346;2023-02-11T05:34:43;103500.22;;;6.08;65.74
62600;BME280;48671;48.922;2.346;2023-02-11T05:37:08;103511.44;;;6.10;66.44
62600;BME280;48671;48.922;2.346;2023-02-11T05:39:33;103504.47;;;6.06;66.52
62600;BME280;48671;48.922;2.346;2023-02-11T05:41:59;103502.66;;;6.04;66.28
62600;BME280;48671;48.922;2.346;2023-02-11T05:44:24;103496.38;;;5.93;66.28
62600;BME280;48671;48.922;2.346;2023-02-11T05:46:49;103489.38;;;5.90;66.38
62600;BME280;48671;48.922;2.346;2023-02-11T05:49:16;103507.59;;;5.95;66.56
62600;BME280;48671;48.922;2.346;2023-02-11T05:51:41;103505.00;;;5.93;66.64
62600;BME280;48671;48.922;2.346;2023-02-11T05:54:06;103490.97;;;5.85;66.82
62600;BME280;48671;48.922;2.346;2023-02-11T05:56:32;103502.41;;;5.93;66.43
62600;BME280;48671;48.922;2.346;2023-02-11T05:58:58;103497.16;;;5.92;66.53
62600;BME280;48671;48.922;2.346;2023-02-11T06:01:24;103495.53;;;5.94;66.40
62600;BME280;48671;48.922;2.346;2023-02-11T06:03:49;103489.41;;;5.92;66.60
62600;BME280;48671;48.922;2.346;2023-02-11T06:06:15;103498.88;;;5.91;67.05
62600;BME280;48671;48.922;2.346;2023-02-11T06:08:41;103489.34;;;5.89;66.35
62600;BME280;48671;48.922;2.346;2023-02-11T06:11:07;103492.94;;;5.94;66.50
62600;BME280;48671;48.922;2.346;2023-02-11T06:13:33;103490.22;;;5.89;65.96
62600;BME280;48671;48.922;2.346;2023-02-11T06:16:00;103497.09;;;5.89;66.38
62600;BME280;48671;48.922;2.346;2023-02-11T06:18:26;103495.31;;;5.86;66.39
62600;BME280;48671;48.922;2.346;2023-02-11T06:20:51;103503.88;;;5.85;66.61
62600;BME280;48671;48.922;2.346;2023-02-11T06:23:17;103502.94;;;5.81;66.27
62600;BME280;48671;48.922;2.346;2023-02-11T06:25:42;103510.69;;;5.81;66.34
62600;BME280;48671;48.922;2.346;2023-02-11T06:28:07;103520.19;;;5.82;66.68
62600;BME280;48671;48.922;2.346;2023-02-11T06:30:35;103514.91;;;5.78;66.46
62600;BME280;48671;48.922;2.346;2023-02-11T06:33:01;103509.63;;;5.73;66.56
62600;BME280;48671;48.922;2.346;2023-02-11T06:35:26;103490.38;;;5.62;66.95
62600;BME280;48671;48.922;2.346;2023-02-11T06:37:52;103517.31;;;5.72;66.87
62600;BME280;48671;48.922;2.346;2023-02-11T06:40:18;103519.09;;;5.73;67.10
62600;BME280;48671;48.922;2.346;2023-02-11T06:42:43;103518.06;;;5.66;66.92
62600;BME280;48671;48.922;2.346;2023-02-11T06:45:09;103512.63;;;5.57;66.79
62600;BME280;48671;48.922;2.346;2023-02-11T06:47:35;103520.16;;;5.49;67.16
62600;BME280;48671;48.922;2.346;2023-02-11T06:50:01;103523.56;;;5.47;67.29
62600;BME280;48671;48.922;2.346;2023-02-11T06:52:26;103506.88;;;5.35;67.69
62600;BME280;48671;48.922;2.346;2023-02-11T06:54:51;103521.84;;;5.47;67.68
62600;BME280;48671;48.922;2.346;2023-02-11T06:57:16;103515.75;;;5.45;68.12
62600;BME280;48671;48.922;2.346;2023-02-11T06:59:42;103526.31;;;5.53;67.89
62600;BME280;48671;48.922;2.346;2023-02-11T07:02:10;103533.16;;;5.52;67.83
62600;BME280;48671;48.922;2.346;2023-02-11T07:04:36;103543.44;;;5.51;67.62
62600;BME280;48671;48.922;2.346;2023-02-11T07:07:01;103526.94;;;5.46;68.21
62600;BME280;48671;48.922;2.346;2023-02-11T07:09:26;103546.13;;;5.54;68.20
62600;BME280;48671;48.922;2.346;2023-02-11T07:11:51;103538.22;;;5.49;67.77
62600;BME280;48671;48.922;2.346;2023-02-11T07:14:17;103545.19;;;5.52;67.93
62600;BME280;48671;48.922;2.346;2023-02-11T07:16:42;103547.84;;;5.53;67.77
62600;BME280;48671;48.922;2.346;2023-02-11T07:19:07;103547.94;;;5.58;68.18
62600;BME280;48671;48.922;2.346;2023-02-11T07:21:33;103545.28;;;5.55;67.44
62600;BME280;48671;48.922;2.346;2023-02-11T07:23:58;103558.34;;;5.59;67.89
62600;BME280;48671;48.922;2.346;2023-02-11T07:26:23;103567.84;;;5.62;67.97
62600;BME280;48671;48.922;2.346;2023-02-11T07:28:53;103564.50;;;5.64;68.11
62600;BME280;48671;48.922;2.346;2023-02-11T07:31:24;103569.75;;;5.68;67.70
62600;BME280;48671;48.922;2.346;2023-02-11T07:33:52;103563.69;;;5.67;67.88
62600;BME280;48671;48.922;2.346;2023-02-11T07:36:18;103562.16;;;5.74;67.47
62600;BME280;48671;48.922;2.346;2023-02-11T07:38:44;103562.25;;;5.77;67.44
62600;BME280;48671;48.922;2.346;2023-02-11T07:41:16;103559.75;;;5.80;68.08
62600;BME280;48671;48.922;2.346;2023-02-11T07:43:42;103558.19;;;5.86;67.40
62600;BME280;48671;48.922;2.346;2023-02-11T07:46:11;103561.53;;;5.82;67.29
62600;BME280;48671;48.922;2.346;2023-02-11T07:48:37;103569.03;;;5.73;67.76
62600;BME280;48671;48.922;2.346;2023-02-11T07:51:12;103560.28;;;5.68;68.28
62600;BME280;48671;48.922;2.346;2023-02-11T07:53:38;103546.50;;;5.68;68.37
62600;BME280;48671;48.922;2.346;2023-02-11T07:56:05;103560.63;;;5.82;67.79
62600;BME280;48671;48.922;2.346;2023-02-11T07:58:31;103568.06;;;6.01;68.23
62600;BME280;48671;48.922;2.346;2023-02-11T08:01:05;103567.00;;;6.26;67.47
62600;BME280;48671;48.922;2.346;2023-02-11T08:03:31;103560.50;;;6.42;67.58
62600;BME280;48671;48.922;2.346;2023-02-11T08:05:57;103561.06;;;6.67;67.48
62600;BME280;48671;48.922;2.346;2023-02-11T08:08:25;103553.03;;;6.92;67.10
62600;BME280;48671;48.922;2.346;2023-02-11T08:10:51;103561.28;;;7.15;67.17
62600;BME280;48671;48.922;2.346;2023-02-11T08:13:16;103565.06;;;7.31;66.88
62600;BME280;48671;48.922;2.346;2023-02-11T08:15:42;103567.88;;;7.42;66.85
62600;BME280;48671;48.922;2.346;2023-02-11T08:18:07;103551.50;;;7.43;66.65
62600;BME280;48671;48.922;2.346;2023-02-11T08:20:32;103566.97;;;7.40;66.51
62600;BME280;48671;48.922;2.346;2023-02-11T08:22:58;103558.28;;;7.36;67.11
62600;BME280;48671;48.922;2.346;2023-02-11T08:25:23;103569.56;;;7.40;67.04
62600;BME280;48671;48.922;2.346;2023-02-11T08:27:48;103563.41;;;7.33;66.78
62600;BME280;48671;48.922;2.346;2023-02-11T08:30:14;103561.34;;;7.18;66.78
62600;BME280;48671;48.922;2.346;2023-02-11T08:32:39;103572.41;;;7.11;67.39
62600;BME280;48671;48.922;2.346;2023-02-11T08:35:05;103571.25;;;6.97;67.58
62600;BME280;48671;48.922;2.346;2023-02-11T08:37:32;103585.72;;;6.89;67.57
62600;BME280;48671;48.922;2.346;2023-02-11T08:39:57;103580.47;;;6.84;68.00
62600;BME280;48671;48.922;2.346;2023-02-11T08:42:23;103569.91;;;6.76;68.87
62600;BME280;48671;48.922;2.346;2023-02-11T08:44:48;103574.97;;;6.70;68.76
62600;BME280;48671;48.922;2.346;2023-02-11T08:47:13;103576.50;;;6.64;68.42
62600;BME280;48671;48.922;2.346;2023-02-11T08:49:39;103579.84;;;6.58;68.84
62600;BME280;48671;48.922;2.346;2023-02-11T08:52:06;103582.38;;;6.56;68.98
62600;BME280;48671;48.922;2.346;2023-02-11T08:54:32;103586.88;;;6.64;69.16
62600;BME280;48671;48.922;2.346;2023-02-11T08:56:57;103593.81;;;6.65;69.04
62600;BME280;48671;48.922;2.346;2023-02-11T08:59:23;103592.16;;;6.68;68.83
62600;BME280;48671;48.922;2.346;2023-02-11T09:01:48;103576.50;;;6.62;69.05
62600;BME280;48671;48.922;2.346;2023-02-11T09:04:14;103598.31;;;6.73;69.01
62600;BME280;48671;48.922;2.346;2023-02-11T09:06:39;103588.81;;;6.72;69.44
62600;BME280;48671;48.922;2.346;2023-02-11T09:09:05;103588.03;;;6.76;69.00
62600;BME280;48671;48.922;2.346;2023-02-11T09:11:33;103595.91;;;6.81;69.50
62600;BME280;48671;48.922;2.346;2023-02-11T09:13:59;103603.78;;;6.86;69.68
62600;BME280;48671;48.922;2.346;2023-02-11T09:16:28;103589.16;;;6.88;69.52
62600;BME280;48671;48.922;2.346;2023-02-11T09:18:59;103586.59;;;6.89;69.52
62600;BME280;48671;48.922;2.346;2023-02-11T09:21:25;103584.16;;;6.95;69.72
62600;BME280;48671;48.922;2.346;2023-02-11T09:23:52;103586.00;;;7.01;69.65
62600;BME280;48671;48.922;2.346;2023-02-11T09:26:23;103587.81;;;7.05;69.44
62600;BME280;48671;48.922;2.346;2023-02-11T09:28:49;103589.75;;;7.14;69.84
62600;BME280;48671;48.922;2.346;2023-02-11T09:31:17;103589.75;;;7.15;69.61
62600;BME280;48671;48.922;2.346;2023-02-11T09:33:44;103587.38;;;7.24;69.62
62600;BME280;48671;48.922;2.346;2023-02-11T09:36:15;103582.28;;;7.29;69.92
62600;BME280;48671;48.922;2.346;2023-02-11T09:38:42;103589.25;;;7.32;70.18
62600;BME280;48671;48.922;2.346;2023-02-11T09:41:25;103602.41;;;7.41;69.52
62600;BME280;48671;48.922;2.346;2023-02-11T09:43:57;103605.97;;;7.46;69.79
62600;BME280;48671;48.922;2.346;2023-02-11T09:46:30;103599.94;;;7.48;69.38
62600;BME280;48671;48.922;2.346;2023-02-11T09:48:55;103600.13;;;7.58;69.58
62600;BME280;48671;48.922;2.346;2023-02-11T09:54:04;103597.66;;;7.62;69.81
62600;BME280;48671;48.922;2.346;2023-02-11T09:56:30;103595.16;;;7.67;69.12
62600;BME280;48671;48.922;2.346;2023-02-11T09:58:56;103599.72;;;7.80;69.38
62600;BME280;48671;48.922;2.346;2023-02-11T10:06:56;103597.97;;;8.26;69.21
62600;BME280;48671;48.922;2.346;2023-02-11T10:09:39;103606.84;;;8.39;68.48
62600;BME280;48671;48.922;2.346;2023-02-11T10:12:16;103605.28;;;8.49;68.81
62600;BME280;48671;48.922;2.346;2023-02-11T10:15:08;103601.06;;;8.54;67.52
62600;BME280;48671;48.922;2.346;2023-02-11T10:17:58;103597.66;;;8.59;67.11
62600;BME280;48671;48.922;2.346;2023-02-11T10:20:58;103598.88;;;8.80;67.24
62600;BME280;48671;48.922;2.346;2023-02-11T10:23:18;103600.88;;;9.01;66.85
62600;BME280;48671;48.922;2.346;2023-02-11T10:25:48;103588.09;;;9.14;67.36
62600;BME280;48671;48.922;2.346;2023-02-11T10:28:20;103592.72;;;9.37;66.69
62600;BME280;48671;48.922;2.346;2023-02-11T10:30:57;103590.16;;;9.42;66.22
62600;BME280;48671;48.922;2.346;2023-02-11T10:36:11;103596.53;;;9.67;66.57
62600;BME280;48671;48.922;2.346;2023-02-11T10:38:37;103588.81;;;9.76;65.94
62600;BME280;48671;48.922;2.346;2023-02-11T10:41:03;103603.69;;;9.88;65.66
62600;BME280;48671;48.922;2.346;2023-02-11T10:43:29;103603.81;;;9.98;65.69
62600;BME280;48671;48.922;2.346;2023-02-11T10:45:57;103602.16;;;10.08;65.80
62600;BME280;48671;48.922;2.346;2023-02-11T10:48:47;103599.56;;;10.08;65.66
62600;BME280;48671;48.922;2.346;2023-02-11T10:51:28;103603.97;;;10.17;65.18
62600;BME280;48671;48.922;2.346;2023-02-11T10:56:31;103603.94;;;10.12;65.38
62600;BME280;48671;48.922;2.346;2023-02-11T11:01:38;103596.16;;;10.17;65.21
62600;BME280;48671;48.922;2.346;2023-02-11T11:04:04;103608.31;;;10.18;65.72
62600;BME280;48671;48.922;2.346;2023-02-11T11:06:31;103604.81;;;10.14;65.30
62600;BME280;48671;48.922;2.346;2023-02-11T11:08:57;103597.81;;;10.10;66.02
62600;BME280;48671;48.922;2.346;2023-02-11T11:11:24;103598.72;;;10.11;66.11
62600;BME280;48671;48.922;2.346;2023-02-11T11:16:26;103591.81;;;10.16;66.67
62600;BME280;48671;48.922;2.346;2023-02-11T11:19:13;103592.75;;;10.22;66.51
62600;BME280;48671;48.922;2.346;2023-02-11T11:24:38;103588.50;;;10.29;66.38
62600;BME280;48671;48.922;2.346;2023-02-11T11:27:01;103584.06;;;10.23;66.22
62600;BME280;48671;48.922;2.346;2023-02-11T11:32:04;103581.50;;;10.25;66.16
62600;BME280;48671;48.922;2.346;2023-02-11T11:34:36;103578.88;;;10.23;66.37
62600;BME280;48671;48.922;2.346;2023-02-11T11:37:12;103573.66;;;10.23;66.07
62600;BME280;48671;48.922;2.346;2023-02-11T11:39:38;103576.25;;;10.22;66.44
62600;BME280;48671;48.922;2.346;2023-02-11T11:42:25;103571.94;;;10.22;66.97
62600;BME280;48671;48.922;2.346;2023-02-11T11:44:59;103582.47;;;10.30;66.57
62600;BME280;48671;48.922;2.346;2023-02-11T11:47:33;103572.91;;;10.32;66.71
62600;BME280;48671;48.922;2.346;2023-02-11T11:56:05;103578.06;;;10.26;66.53
62600;BME280;48671;48.922;2.346;2023-02-11T11:58:34;103568.56;;;10.32;66.54
62600;BME280;48671;48.922;2.346;2023-02-11T12:06:41;103567.00;;;10.53;66.07
62600;BME280;48671;48.922;2.346;2023-02-11T12:12:17;103557.53;;;10.63;65.46
62600;BME280;48671;48.922;2.346;2023-02-11T12:18:07;103556.69;;;10.68;65.57
62600;BME280;48671;48.922;2.346;2023-02-11T12:26:16;103537.69;;;10.85;65.36
62600;BME280;48671;48.922;2.346;2023-02-11T12:33:50;103543.88;;;11.02;64.83
62600;BME280;48671;48.922;2.346;2023-02-11T12:36:50;103536.94;;;11.09;64.39
62600;BME280;48671;48.922;2.346;2023-02-11T12:39:36;103536.97;;;11.16;64.29
62600;BME280;48671;48.922;2.346;2023-02-11T12:47:54;103537.81;;;11.12;63.71
62600;BME280;48671;48.922;2.346;2023-02-11T12:53:16;103533.47;;;11.10;64.14
62600;BME280;48671;48.922;2.346;2023-02-11T12:55:47;103527.34;;;11.01;63.75
62600;BME280;48671;48.922;2.346;2023-02-11T12:58:21;103526.44;;;10.98;63.79
62600;BME280;48671;48.922;2.346;2023-02-11T13:06:44;103520.41;;;11.02;64.29
62600;BME280;48671;48.922;2.346;2023-02-11T13:09:19;103513.47;;;11.06;64.32
62600;BME280;48671;48.922;2.346;2023-02-11T13:11:50;103520.41;;;11.05;64.06
62600;BME280;48671;48.922;2.346;2023-02-11T13:16:49;103514.31;;;11.01;64.04
62600;BME280;48671;48.922;2.346;2023-02-11T13:19:36;103511.72;;;11.00;63.92
62600;BME280;48671;48.922;2.346;2023-02-11T13:22:11;103506.47;;;10.98;63.74
62600;BME280;48671;48.922;2.346;2023-02-11T13:27:45;103506.50;;;11.05;64.08
62600;BME280;48671;48.922;2.346;2023-02-11T13:35:33;103494.34;;;11.05;63.89
62600;BME280;48671;48.922;2.346;2023-02-11T13:38:01;103490.03;;;11.02;63.86
62600;BME280;48671;48.922;2.346;2023-02-11T13:40:31;103485.66;;;11.01;63.71
62600;BME280;48671;48.922;2.346;2023-02-11T13:42:59;103489.16;;;11.04;64.23
62600;BME280;48671;48.922;2.346;2023-02-11T13:48:00;103476.97;;;11.01;63.85
62600;BME280;48671;48.922;2.346;2023-02-11T13:50:27;103473.53;;;11.02;63.44
62600;BME280;48671;48.922;2.346;2023-02-11T13:52:59;103481.31;;;11.05;63.54
62600;BME280;48671;48.922;2.346;2023-02-11T13:55:26;103482.22;;;11.06;63.46
62600;BME280;48671;48.922;2.346;2023-02-11T14:06:11;103474.31;;;10.92;63.67
62600;BME280;48671;48.922;2.346;2023-02-11T14:11:44;103475.22;;;10.98;63.69
62600;BME280;48671;48.922;2.346;2023-02-11T14:14:28;103466.53;;;10.98;63.84
62600;BME280;48671;48.922;2.346;2023-02-11T14:19:30;103466.56;;;11.01;63.46
62600;BME280;48671;48.922;2.346;2023-02-11T14:22:30;103459.59;;;11.05;63.30
62600;BME280;48671;48.922;2.346;2023-02-11T14:25:17;103462.22;;;11.00;63.33
62600;BME280;48671;48.922;2.346;2023-02-11T14:27:49;103467.44;;;11.06;63.26
62600;BME280;48671;48.922;2.346;2023-02-11T14:33:38;103450.06;;;11.04;63.25
62600;BME280;48671;48.922;2.346;2023-02-11T14:41:40;103455.31;;;11.13;63.68
62600;BME280;48671;48.922;2.346;2023-02-11T14:44:27;103457.06;;;11.18;63.14
62600;BME280;48671;48.922;2.346;2023-02-11T14:46:55;103454.44;;;11.17;63.23
62600;BME280;48671;48.922;2.346;2023-02-11T14:49:25;103457.94;;;11.19;63.55
62600;BME280;48671;48.922;2.346;2023-02-11T14:51:55;103452.72;;;11.20;63.58
62600;BME280;48671;48.922;2.346;2023-02-11T14:54:24;103453.56;;;11.21;63.44
62600;BME280;48671;48.922;2.346;2023-02-11T14:57:14;103456.19;;;11.24;63.57
62600;BME280;48671;48.922;2.346;2023-02-11T14:59:52;103454.44;;;11.24;63.71
62600;BME280;48671;48.922;2.346;2023-02-11T15:02:21;103451.84;;;11.23;63.45
62600;BME280;48671;48.922;2.346;2023-02-11T15:04:47;103443.19;;;11.25;63.32
62600;BME280;48671;48.922;2.346;2023-02-11T15:07:12;103451.00;;;11.33;63.59
62600;BME280;48671;48.922;2.346;2023-02-11T15:09:41;103457.09;;;11.35;63.97
62600;BME280;48671;48.922;2.346;2023-02-11T15:12:17;103454.47;;;11.37;63.43
62600;BME280;48671;48.922;2.346;2023-02-11T15:14:47;103451.03;;;11.35;63.74
62600;BME280;48671;48.922;2.346;2023-02-11T15:17:16;103457.13;;;11.38;63.18
62600;BME280;48671;48.922;2.346;2023-02-11T15:19:46;103451.88;;;11.37;63.75